الصفحة الرئيسية
METAR-TAF:

METAR-TAF

مطار :

بلغراد, صربيا

مطار نيكولا تسلا في بلغراد

دائرة عرض: 44-49N, خط طول: 020-17E, ارتفاع: 96 متر

مراقبة الطقس الحالي

تاريخ ووقت الإصدار 25 دقيقة قبل الساعة 08:00UTC
ريح 9 عقدة من الشرق/الشمال الشرقي
درجة الحرارة 1°درجة مئوية
الرطوبة 93%
ضغط 1012 hPa
الرؤية: 6000 متر
غيوم قليلة على ارتفاع 600 قدم
غيوم متفرقة على ارتفاع 1500 قدم
غيوم مفككة على ارتفاع 3300 قدم

METAR: LYBE 220800Z 07009KT 6000 FEW006 SCT015 BKN033 01/00 Q1012 R12/2///95 TEMPO 3000 -SN BKN007 BKN030

زمن: 09:25 (08:25 UTC)

توقعات

تاريخ ووقت الإصدار 3ساعات و 25 دقيقة قبل الساعة 05:00UTC
التوقعات صالحة من22 الساعة 06 UTC إلى 23 الساعة 06 UTC
ريح 12 عقدة من الشرق
الرؤية 10 كم أو أكثر
غيوم متفرقة على ارتفاع 1000 قدم
غيوم مفككة على ارتفاع 4000 قدم
مؤقت
من 22 الساعة 06 UTC إلى 22 الساعة 09 UTC
الرؤية: 3000 متر
غيوم مفككة على ارتفاع 500 قدم
غيوم مفككة على ارتفاع 2300 قدم
ثلوج

TAF: LYBE 220500Z 2206/2306 09012KT 9999 SCT010 BKN040 TX05/2213Z TN00/2206Z TEMPO 2206/2209 3000 SN BKN005 BKN023

أرصاد الطقس والتوقعات من أكثر من 4000 مطار (تقارير الطقس للمطار METAR والتنبؤ بالطقس بالمطارTAF).

المحطات المتاحة هي النقط الصفراء والحمراء على الخريطة.

حرك المؤشر فوق النقطة لمعرفة اسم المحطة.

ثم انقر لمعرفة أرصاد وتوقعات الطقس.

لتغيير الخارطة: اضغط على الأزرار الخضراء مع رمز الصليب الأسود للتكبير. على الزر الأخضر مع شرطة للتصغير، أو على الأسهم الخضراء للخرائط المجاورة.


METAR-TAF: